CheckWX is a tool to help pilots better visualize weather data.  It is not intended as a substitute for an official pre-flight weather briefing.

20:18:29 UTC

KVPZ METAR
Porter County Regional Airport
Valparaiso, Indiana, USA
Current

22 mins ago

KVPZ 311956Z AUTO 35009KT 10SM CLR 19/04 A3032 RMK AO2 SLP268 T01940039
Observed
May-31 @ 19:56 UTC
Wind
  • 350° at 9 KTS
Visibility
Flight Rules
VFR
Cloud Levels
  • Clear skies
Temperature
19°C / 66°F
Dewpoint
C / 39°F
Humidity
37%
Altimeter
30.32" Hg
Pressure
1026.72 hPa
Previous

1 hour ago

KVPZ 311856Z AUTO 34007KT 290V360 10SM CLR 19/04 A3033 RMK AO2 SLP271 T01940039
Observed
May-31 @ 18:56 UTC
Wind
  • 340° at 7 KTS
Visibility
Flight Rules
VFR
Cloud Levels
  • Clear skies
Temperature
19°C / 66°F
Dewpoint
C / 39°F
Humidity
37%
Altimeter
30.33" Hg
Pressure
1027.12 hPa
Previous

2 hours ago

KVPZ 311756Z AUTO 31004KT 10SM CLR 18/04 A3035 RMK AO2 SLP276 T01830044 10194 20106 58009
Observed
May-31 @ 17:56 UTC
Wind
  • 310° at 4 KTS
Visibility
Flight Rules
VFR
Cloud Levels
  • Clear skies
Temperature
18°C / 64°F
Dewpoint
C / 39°F
Humidity
40%
Altimeter
30.35" Hg
Pressure
1027.82 hPa